Weather at Memmingen Allgau Airport

Public forecast

Using degrees Celsius for public forecast. Weather courtesy of forecast.io.

Current aviation weather report (METAR) for Memmingen Allgau Airport

2024/02/23 07:50 (retrieved 35 minutes ago)

EDJA 230750Z 23010KT CAVOK 03/01 Q0999

Closest aviation forecast (TAF) to Memmingen Allgau Airport

Closest forecast is Friedrichshafen Airport, 35.0 nm (64.8 km) WSW.

2024/02/23 06:27 (retrieved 2 hours ago)

TAF EDNY 230500Z 2306/2406 24006KT 9999 FEW030 BKN050 BECMG 2314/2316 VRB03KT